Aviation Digital Data Service (ADDS)

Output produced by TAFs form (0751 UTC 20 February 2018)
found at http://www.aviationweather.gov/adds/tafs/
 
KPSF 200543Z 2006/2106 23009G19KT 3SM -SHRA BR BKN005 OVC015 WS020/22040KT 
     FM201600 22010G20KT 6SM BR VCSH SCT015 BKN025 OVC050 
     FM201900 22012G22KT P6SM BKN025 BKN035 
     FM210000 22009KT P6SM BKN025